| time (UTC) | temp C | wind direction | speed KPH | gust KPH | rain 1hr cm | rain 24hr cm | rain mn cm | humidity % | barometer mb |
| 20260901164535 | 21 | 243 | 0.0 | 8.0 | 0.00 | 0.00 | 0.00 | 51 | 1019.0 |
| 20260901163534 | 21 | 306 | 1.6 | 8.0 | 0.00 | 0.00 | 0.00 | 50 | 1019.0 |
| 20260901162533 | 21 | 252 | 6.4 | 9.7 | 0.00 | 0.00 | 0.00 | 50 | 1019.0 |
| 20260901161533 | 21 | 0 | 4.8 | 8.0 | 0.00 | 0.00 | 0.00 | 50 | 1019.0 |
| 20260901160536 | 21 | 276 | 3.2 | 8.0 | 0.00 | 0.00 | 0.00 | 51 | 1019.1 |
| 20260901155531 | 21 | 247 | 1.6 | 6.4 | 0.00 | 0.00 | 0.00 | 51 | 1019.1 |
| 20260901154532 | 21 | 319 | 4.8 | 9.7 | 0.00 | 0.00 | 0.00 | 52 | 1019.3 |
| 20260901153534 | 21 | 214 | 1.6 | 4.8 | 0.00 | 0.00 | 0.00 | 51 | 1019.3 |
| 20260901152533 | 21 | 0 | 1.6 | 6.4 | 0.00 | 0.00 | 0.00 | 52 | 1019.4 |
| 20260901151531 | 21 | 334 | 1.6 | 9.7 | 0.00 | 0.00 | 0.00 | 52 | 1019.4 |
| 20260901150533 | 21 | 272 | 1.6 | 6.4 | 0.00 | 0.00 | 0.00 | 52 | 1019.2 |
| 20260901145531 | 21 | 296 | 3.2 | 8.0 | 0.00 | 0.00 | 0.00 | 51 | 1019.3 |
| 20260901144532 | 21 | 313 | 3.2 | 6.4 | 0.00 | 0.00 | 0.00 | 51 | 1019.3 |
| 20260901144013 | 21 | 353 | 3.2 | 8.0 | 0.00 | 0.00 | 0.00 | 50 | 1019.5 |
| 20260901142531 | 21 | 255 | 3.2 | 9.7 | 0.00 | 0.00 | 0.00 | 49 | 1019.6 |
| 20260901141530 | 22 | 1 | 3.2 | 8.0 | 0.00 | 0.00 | 0.00 | 48 | 1019.5 |
| 20260901140532 | 22 | 171 | 1.6 | 9.7 | 0.00 | 0.10 | 0.00 | 47 | 1019.5 |
| 20260901135530 | 23 | 265 | 9.7 | 14.5 | 0.00 | 0.15 | 0.00 | 46 | 1019.6 |
| 20260901135007 | 23 | 145 | 3.2 | 9.7 | 0.00 | 0.15 | 0.00 | 48 | 1019.5 |
| 20260901133530 | 22 | 144 | 1.6 | 9.7 | 0.00 | 0.15 | 0.00 | 49 | 1019.5 |
| 20260901132530 | 22 | 152 | 6.4 | 9.7 | 0.00 | 0.15 | 0.00 | 49 | 1019.6 |
| 20260901131530 | 22 | 241 | 3.2 | 8.0 | 0.00 | 0.15 | 0.00 | 50 | 1019.6 |
| 20260901130530 | 21 | 202 | 4.8 | 9.7 | 0.00 | 0.15 | 0.00 | 49 | 1019.8 |
| 20260901125531 | 21 | 147 | 3.2 | 11.3 | 0.00 | 0.15 | 0.00 | 49 | 1019.7 |
| 20260901124528 | 22 | 182 | 3.2 | 9.7 | 0.00 | 0.15 | 0.00 | 47 | 1019.7 |
| 20260901123529 | 21 | 292 | 4.8 | 8.0 | 0.00 | 0.15 | 0.00 | 49 | 1019.8 |
| 20260901122530 | 22 | 175 | 0.0 | 9.7 | 0.00 | 0.15 | 0.00 | 48 | 1019.9 |
| 20260901122008 | 22 | 227 | 6.4 | 11.3 | 0.00 | 0.15 | 0.00 | 47 | 1020.1 |
| 20260901120528 | 22 | 230 | 3.2 | 8.0 | 0.00 | 0.15 | 0.00 | 50 | 1020.0 |
| 20260901120010 | 21 | 209 | 1.6 | 11.3 | 0.00 | 0.15 | 0.00 | 51 | 1020.1 |
| 20260901114527 | 20 | 221 | 3.2 | 6.4 | 0.00 | 0.15 | 0.00 | 52 | 1020.0 |
| 20260901114011 | 21 | 306 | 6.4 | 11.3 | 0.00 | 0.15 | 0.00 | 50 | 1020.1 |
| 20260901112529 | 21 | 238 | 3.2 | 8.0 | 0.00 | 0.15 | 0.00 | 51 | 1020.2 |
| 20260901111530 | 20 | 220 | 1.6 | 8.0 | 0.00 | 0.15 | 0.00 | 52 | 1020.2 |
| 20260901110529 | 20 | 238 | 8.0 | 14.5 | 0.00 | 0.15 | 0.00 | 52 | 1020.2 |
| 20260901105528 | 20 | 231 | 3.2 | 9.7 | 0.00 | 0.15 | 0.00 | 52 | 1020.2 |
| 20260901104528 | 20 | 303 | 4.8 | 9.7 | 0.00 | 0.15 | 0.00 | 51 | 1020.3 |
| 20260901103528 | 20 | 155 | 3.2 | 8.0 | 0.00 | 0.15 | 0.00 | 53 | 1020.2 |
| 20260901102527 | 20 | 175 | 3.2 | 6.4 | 0.00 | 0.15 | 0.00 | 53 | 1020.2 |
| 20260901101527 | 20 | 135 | 3.2 | 8.0 | 0.00 | 0.15 | 0.00 | 53 | 1020.4 |
| 20260901100527 | 19 | 171 | 4.8 | 9.7 | 0.00 | 0.15 | 0.00 | 54 | 1020.5 |
| 20260901095526 | 19 | 262 | 4.8 | 8.0 | 0.00 | 0.15 | 0.00 | 55 | 1020.6 |
| 20260901094525 | 18 | 276 | 1.6 | 6.4 | 0.00 | 0.15 | 0.00 | 58 | 1020.7 |
| 20260901093525 | 18 | 288 | 1.6 | 6.4 | 0.00 | 0.15 | 0.00 | 60 | 1020.7 |
| 20260901092525 | 18 | 168 | 3.2 | 9.7 | 0.00 | 0.15 | 0.00 | 61 | 1020.7 |
| 20260901092437 | 18 | 245 | 3.2 | 8.0 | 0.00 | 0.15 | 0.00 | 65 | 1020.9 |
| 20260901090525 | 18 | 248 | 1.6 | 4.8 | 0.00 | 0.15 | 0.00 | 65 | 1020.7 |
| 20260901085525 | 17 | 245 | 1.6 | 6.4 | 0.00 | 0.15 | 0.00 | 67 | 1020.8 |
| 20260901085005 | 17 | 213 | 1.6 | 6.4 | 0.00 | 0.15 | 0.00 | 71 | 1020.6 |
| 20260901083524 | 16 | 241 | 3.2 | 4.8 | 0.00 | 0.15 | 0.00 | 74 | 1020.6 |
| 20260901083005 | 16 | 204 | 3.2 | 4.8 | 0.00 | 0.15 | 0.00 | 75 | 1020.6 |
| 20260901081524 | 15 | 200 | 0.0 | 6.4 | 0.00 | 0.15 | 0.00 | 78 | 1020.5 |
| 20260901080523 | 15 | 212 | 1.6 | 4.8 | 0.00 | 0.15 | 0.00 | 79 | 1020.4 |
| 20260901075523 | 13 | 251 | 1.6 | 4.8 | 0.00 | 0.15 | 0.00 | 84 | 1020.3 |
| 20260901074522 | 13 | 228 | 1.6 | 3.2 | 0.00 | 0.15 | 0.00 | 85 | 1020.3 |
| 20260901073522 | 12 | 233 | 1.6 | 3.2 | 0.00 | 0.15 | 0.00 | 87 | 1020.3 |
| 20260901073008 | 12 | 233 | 1.6 | 3.2 | 0.00 | 0.15 | 0.00 | 88 | 1020.3 |
| 20260901071523 | 12 | 233 | 0.0 | 3.2 | 0.00 | 0.15 | 0.00 | 88 | 1020.3 |
| 20260901070522 | 11 | 231 | 0.0 | 6.4 | 0.00 | 0.15 | 0.00 | 89 | 1020.3 |
| 20260901065958 | 11 | 247 | 1.6 | 3.2 | 0.00 | 0.15 | 0.00 | 89 | 1020.2 |
| 20260901064523 | 11 | 233 | 0.0 | 1.6 | 0.00 | 0.15 | 0.00 | 89 | 1020.2 |
| 20260901063953 | 11 | 233 | 1.6 | 1.6 | 0.00 | 0.15 | 0.00 | 89 | 1020.1 |
| 20260901063004 | 11 | 235 | 0.0 | 1.6 | 0.00 | 0.15 | 0.00 | 89 | 1020.0 |
| 20260901061520 | 11 | 234 | 0.0 | 0.0 | 0.00 | 0.15 | 0.00 | 89 | 1020.1 |
| 20260901060520 | 11 | 231 | 0.0 | 1.6 | 0.00 | 0.15 | 0.00 | 89 | 1019.9 |
| 20260901055520 | 11 | 231 | 0.0 | 3.2 | 0.00 | 0.15 | 0.00 | 89 | 1019.9 |
| 20260901054520 | 11 | 231 | 0.0 | 1.6 | 0.00 | 0.15 | 0.00 | 89 | 1019.8 |
| 20260901053520 | 11 | 231 | 0.0 | 1.6 | 0.00 | 0.15 | 0.00 | 89 | 1019.8 |
| 20260901052519 | 11 | 231 | 0.0 | 3.2 | 0.00 | 0.15 | 0.00 | 89 | 1019.7 |
| 20260901052435 | 11 | 231 | 0.0 | 1.6 | 0.00 | 0.15 | 0.00 | 89 | 1019.6 |
| 20260901050519 | 11 | 231 | 1.6 | 3.2 | 0.00 | 0.15 | 0.00 | 89 | 1019.4 |
| 20260901045518 | 11 | 230 | 1.6 | 4.8 | 0.00 | 0.15 | 0.00 | 89 | 1019.4 |
| 20260901044519 | 11 | 264 | 1.6 | 3.2 | 0.00 | 0.15 | 0.00 | 89 | 1019.4 |
| 20260901043519 | 11 | 265 | 0.0 | 1.6 | 0.00 | 0.15 | 0.00 | 88 | 1019.3 |
| 20260901042520 | 11 | 265 | 0.0 | 0.0 | 0.00 | 0.15 | 0.00 | 88 | 1019.4 |
| 20260901041519 | 11 | 265 | 0.0 | 0.0 | 0.00 | 0.15 | 0.00 | 88 | 1019.2 |
| 20260901041002 | 11 | 265 | 0.0 | 0.0 | 0.00 | 0.15 | 0.00 | 87 | 1019.2 |
| 20260901035520 | 11 | 265 | 0.0 | 0.0 | 0.00 | 0.15 | 0.00 | 87 | 1019.2 |
| 20260901034519 | 11 | 265 | 1.6 | 3.2 | 0.00 | 0.15 | 0.00 | 87 | 1019.2 |
| 20260901033519 | 11 | 265 | 0.0 | 3.2 | 0.00 | 0.15 | 0.00 | 87 | 1019.2 |
| 20260901033442 | 11 | 265 | 0.0 | 1.6 | 0.00 | 0.15 | 0.00 | 87 | 1019.2 |
| 20260901031518 | 11 | 265 | 1.6 | 3.2 | 0.00 | 0.15 | 0.00 | 87 | 1019.1 |
| 20260901030520 | 11 | 265 | 0.0 | 1.6 | 0.00 | 0.15 | 0.00 | 87 | 1019.0 |
| 20260901025519 | 11 | 265 | 0.0 | 1.6 | 0.00 | 0.15 | 0.00 | 86 | 1019.0 |
| 20260901024517 | 12 | 265 | 0.0 | 1.6 | 0.00 | 0.15 | 0.00 | 86 | 1019.0 |
| 20260901023516 | 12 | 265 | 0.0 | 1.6 | 0.00 | 0.15 | 0.00 | 85 | 1019.0 |
| 20260901022515 | 12 | 265 | 0.0 | 0.0 | 0.00 | 0.15 | 0.00 | 85 | 1019.1 |
| 20260901021953 | 12 | 265 | 0.0 | 1.6 | 0.00 | 0.15 | 0.00 | 85 | 1019.1 |
| 20260901020515 | 12 | 265 | 0.0 | 1.6 | 0.00 | 0.15 | 0.00 | 85 | 1019.1 |
| 20260901015953 | 12 | 265 | 0.0 | 1.6 | 0.00 | 0.15 | 0.00 | 84 | 1019.1 |
| 20260901014515 | 12 | 265 | 0.0 | 1.6 | 0.00 | 0.15 | 0.00 | 84 | 1019.1 |
| 20260901013514 | 12 | 265 | 0.0 | 1.6 | 0.00 | 0.15 | 0.00 | 84 | 1019.2 |
| 20260901012515 | 12 | 265 | 0.0 | 3.2 | 0.00 | 0.15 | 0.00 | 84 | 1019.1 |
| 20260901011514 | 13 | 265 | 0.0 | 1.6 | 0.00 | 0.15 | 0.00 | 83 | 1019.1 |
| 20260901010515 | 13 | 265 | 0.0 | 0.0 | 0.00 | 0.15 | 0.00 | 83 | 1019.0 |
| 20260901005513 | 13 | 265 | 0.0 | 1.6 | 0.00 | 0.15 | 0.00 | 82 | 1019.0 |
| 20260901004513 | 13 | 265 | 0.0 | 1.6 | 0.00 | 0.15 | 0.00 | 82 | 1019.1 |
| 20260901003514 | 13 | 266 | 0.0 | 1.6 | 0.00 | 0.15 | 0.00 | 81 | 1019.0 |
| 20260901002513 | 13 | 266 | 0.0 | 1.6 | 0.00 | 0.15 | 0.00 | 81 | 1018.9 |
| 20260901001512 | 13 | 266 | 0.0 | 1.6 | 0.00 | 0.15 | 0.00 | 80 | 1018.9 |
| 20260901000513 | 14 | 266 | 0.0 | 1.6 | 0.00 | 0.15 | 0.00 | 79 | 1018.9 |
| 20260831235514 | 14 | 266 | 0.0 | 1.6 | 0.00 | 0.15 | 0.00 | 79 | 1018.8 |
| 20260831234514 | 14 | 266 | 1.6 | 3.2 | 0.00 | 0.15 | 0.00 | 79 | 1018.8 |
| 20260831233513 | 14 | 265 | 0.0 | 3.2 | 0.00 | 0.15 | 0.00 | 79 | 1018.7 |
| 20260831233434 | 14 | 265 | 0.0 | 3.2 | 0.00 | 0.15 | 0.00 | 79 | 1018.7 |
| 20260831231507 | 14 | 264 | 3.2 | 4.8 | 0.00 | 0.15 | 0.00 | 79 | 1018.6 |
| 20260831230504 | 15 | 275 | 0.0 | 1.6 | 0.00 | 0.15 | 0.00 | 78 | 1018.7 |
| 20260831225503 | 15 | 275 | 1.6 | 3.2 | 0.00 | 0.15 | 0.15 | 78 | 1018.6 |
| 20260831224502 | 15 | 286 | 0.0 | 4.8 | 0.00 | 0.15 | 0.15 | 78 | 1018.6 |
| 20260831223946 | 15 | 264 | 0.0 | 1.6 | 0.00 | 0.15 | 0.15 | 79 | 1018.6 |
| 20260831222503 | 15 | 279 | 0.0 | 1.6 | 0.00 | 0.15 | 0.15 | 79 | 1018.5 |
| 20260831221502 | 15 | 279 | 0.0 | 1.6 | 0.00 | 0.15 | 0.15 | 78 | 1018.4 |
| 20260831220502 | 15 | 279 | 0.0 | 3.2 | 0.00 | 0.15 | 0.15 | 77 | 1018.4 |
| 20260831215503 | 15 | 279 | 1.6 | 1.6 | 0.00 | 0.15 | 0.15 | 76 | 1018.3 |
| 20260831214504 | 15 | 279 | 0.0 | 1.6 | 0.00 | 0.15 | 0.15 | 76 | 1018.3 |
| 20260831213503 | 15 | 279 | 0.0 | 1.6 | 0.00 | 0.18 | 0.15 | 75 | 1018.2 |
| 20260831212502 | 16 | 279 | 0.0 | 3.2 | 0.00 | 0.18 | 0.15 | 74 | 1018.1 |
| 20260831211502 | 16 | 278 | 1.6 | 3.2 | 0.00 | 0.20 | 0.15 | 73 | 1018.0 |
| 20260831210504 | 16 | 327 | 0.0 | 8.0 | 0.00 | 0.20 | 0.15 | 73 | 1017.8 |
| 20260831205503 | 16 | 226 | 4.8 | 6.4 | 0.00 | 0.23 | 0.15 | 73 | 1017.9 |
| 20260831204504 | 16 | 329 | 0.0 | 4.8 | 0.00 | 0.23 | 0.15 | 73 | 1017.7 |
| 20260831203504 | 16 | 303 | 0.0 | 3.2 | 0.00 | 0.23 | 0.15 | 73 | 1017.6 |
| 20260831202504 | 16 | 281 | 0.0 | 3.2 | 0.00 | 0.23 | 0.15 | 72 | 1017.5 |
| 20260831201504 | 16 | 279 | 0.0 | 4.8 | 0.00 | 0.23 | 0.15 | 72 | 1017.4 |
| 20260831200504 | 17 | 269 | 3.2 | 6.4 | 0.00 | 0.23 | 0.15 | 72 | 1017.2 |
| 20260831195505 | 17 | 312 | 1.6 | 6.4 | 0.00 | 0.23 | 0.15 | 71 | 1017.1 |
| 20260831194502 | 17 | 290 | 0.0 | 1.6 | 0.00 | 0.23 | 0.15 | 71 | 1016.9 |
| 20260831193502 | 17 | 285 | 1.6 | 3.2 | 0.00 | 0.23 | 0.15 | 71 | 1016.8 |
| 20260831192503 | 17 | 283 | 1.6 | 4.8 | 0.00 | 0.23 | 0.15 | 69 | 1016.6 |
| 20260831191502 | 17 | 258 | 1.6 | 3.2 | 0.00 | 0.23 | 0.15 | 70 | 1016.5 |
| 20260831190503 | 18 | 264 | 1.6 | 4.8 | 0.00 | 0.23 | 0.15 | 69 | 1016.4 |
| 20260831185503 | 18 | 296 | 1.6 | 6.4 | 0.00 | 0.23 | 0.15 | 69 | 1016.3 |
| 20260831184503 | 18 | 289 | 1.6 | 6.4 | 0.00 | 0.23 | 0.15 | 69 | 1016.1 |
| 20260831183503 | 18 | 254 | 3.2 | 8.0 | 0.00 | 0.23 | 0.15 | 70 | 1016.0 |
| 20260831182940 | 19 | 258 | 1.6 | 9.7 | 0.00 | 0.23 | 0.15 | 72 | 1015.8 |
| 20260831181503 | 19 | 0 | 4.8 | 8.0 | 0.00 | 0.23 | 0.15 | 74 | 1015.6 |
| 20260831180502 | 19 | 336 | 0.0 | 4.8 | 0.00 | 0.23 | 0.15 | 75 | 1015.4 |
| 20260831175501 | 19 | 264 | 0.0 | 4.8 | 0.00 | 0.23 | 0.15 | 76 | 1015.2 |
| 20260831175433 | 19 | 271 | 1.6 | 4.8 | 0.00 | 0.23 | 0.15 | 76 | 1015.0 |
| 20260831173502 | 19 | 247 | 1.6 | 3.2 | 0.00 | 0.23 | 0.15 | 76 | 1015.0 |
| 20260831172504 | 19 | 275 | 1.6 | 3.2 | 0.00 | 0.23 | 0.15 | 76 | 1014.8 |
| 20260831171502 | 19 | 275 | 1.6 | 4.8 | 0.00 | 0.23 | 0.15 | 76 | 1014.7 |
| 20260831170502 | 19 | 278 | 1.6 | 3.2 | 0.00 | 0.23 | 0.15 | 76 | 1014.7 |
| 20260831165502 | 19 | 196 | 0.0 | 3.2 | 0.00 | 0.23 | 0.15 | 77 | 1014.7 |